Home > Products > Valid Products > TAF

000
FTUS46 KMTR 250000 AAA
TAFOAK
TAF AMD
KOAK 250014Z 2500/2606 27015KT P6SM BKN150
     FM250200 25010KT P6SM SCT015 BKN025
     FM251200 19008KT P6SM VCSH SCT015 OVC025
     FM251800 24015G22KT P6SM -SHRA BKN030
     FM260300 27012KT P6SM SCT030=



000
FTUS46 KMTR 250000 AAA
TAFSFO
TAF AMD
KSFO 250003Z 2500/2606 26019G25KT P6SM SCT015 BKN150
      TEMPO 2500/2501 BKN015
     FM250100 24015KT P6SM BKN015
     FM251200 19008KT P6SM VCSH SCT015 OVC025
     FM252000 24015G25KT P6SM -SHRA BKN030
     FM260300 27015KT P6SM SCT030=



000
FTUS46 KMTR 242300 RRA
TAFSJC
TAF
KSJC 242341Z 2500/2524 30015KT P6SM BKN180
     FM250300 29010KT P6SM OVC100
     FM250600 31005KT P6SM SCT015 OVC025
     FM251300 16005KT P6SM OVC025
     FM251800 16006KT P6SM SCT025 BKN050
     FM252100 26010KT P6SM -SHRA BKN050=



000
FTUS46 KMTR 242300 RRA
TAFMRY
TAF
KMRY 242341Z 2500/2524 27006KT P6SM SCT100
     FM250300 23006KT P6SM BKN015
     FM250600 20004KT P6SM OVC010
     FM251800 24006KT P6SM -SHRA FEW012 OVC050=



000
FTUS46 KMTR 242300 RRA
TAFSFO
TAF
KSFO 242341Z 2500/2606 26019G25KT P6SM BKN150
     FM250400 24015KT P6SM SCT015 BKN025
     FM251200 19008KT P6SM VCSH SCT015 OVC025
     FM252000 24015G25KT P6SM -SHRA BKN030
     FM260300 27015KT P6SM SCT030=



000
FTUS46 KMTR 242300 RRA
TAFOAK
TAF
KOAK 242341Z 2500/2606 27015KT P6SM BKN150
     FM250400 25010KT P6SM SCT015 BKN025
     FM251200 19008KT P6SM VCSH SCT015 OVC025
     FM251800 24015G22KT P6SM -SHRA BKN030
     FM260300 27012KT P6SM SCT030=



000
FTUS46 KMTR 242300 RRA
TAFSNS
TAF
KSNS 242341Z 2500/2524 26012G18KT P6SM SCT100
     FM250300 26008KT P6SM OVC015
     FM250800 15004KT P6SM OVC010
     FM251600 15006KT P6SM SCT015 OVC050
     FM251900 15008KT P6SM -SHRA OVC050=



000
FTUS46 KMTR 242300 RRA
TAFSTS
TAF
KSTS 242341Z 2500/2524 24010KT P6SM BKN035
     FM250400 19006KT P6SM BKN015 OVC025
     FM251200 19004KT P6SM -SHRA SCT025 OVC050=



000
FTUS46 KMTR 242200 AAB
TAFSFO
TAF AMD
KSFO 242200Z 2422/2524 28019G25KT P6SM SCT025 BKN150
     FM250300 26015KT P6SM SCT015 BKN025
     FM250800 26008KT P6SM VCSH SCT015 OVC025
     FM252000 27015G25KT P6SM BKN025=



000
FTUS46 KMTR 242100 AAA
TAFOAK
TAF AMD
KOAK 242154Z 2422/2524 27015KT P6SM FEW015 BKN150
     FM250200 27015KT P6SM SCT015 BKN025
     FM250800 26010KT P6SM VCSH SCT015 OVC025
     FM252100 27015G22KT P6SM BKN025=



000
FTUS46 KMTR 242100 AAB
TAFSJC
TAF AMD
KSJC 242153Z 2422/2518 31009KT P6SM FEW020 SCT030 BKN130
     FM242230 30015G20KT P6SM SCT050 BKN180
     FM250300 29010KT P6SM SCT015 BKN020 OVC100
     FM250600 31005KT P6SM VCSH SCT015 OVC025=



000
FTUS46 KMTR 242000 AAA
TAFSNS
TAF AMD
KSNS 242039Z 2421/2518 26012G18KT P6SM SKC
     FM250300 26008KT P6SM FEW010 OVC015
     FM250800 30004KT P6SM VCSH OVC010=



000
FTUS46 KMTR 241900 AAA
TAFSFO
TAF AMD
KSFO 241911Z 2419/2524 26012KT P6SM SCT015 BKN200
      TEMPO 2419/2420 BKN025
     FM242130 28019G25KT P6SM SCT025 BKN035 OVC150
     FM250300 26015KT P6SM SCT015 BKN025
     FM250800 26008KT P6SM VCSH SCT015 OVC025
     FM252000 27015G25KT P6SM BKN025=



000
FTUS46 KMTR 241800 AAA
TAFSJC
TAF AMD
KSJC 241826Z 2418/2518 30007KT P6SM FEW020 SCT030 BKN130
     FM242100 30015G20KT P6SM SCT050 BKN180
     FM250300 29010KT P6SM SCT015 BKN020 OVC100
     FM250600 31005KT P6SM VCSH SCT015 OVC025=



000
FTUS46 KMTR 241700
TAFSFO
TAF
KSFO 241731Z 2418/2524 27008KT P6SM FEW005 BKN015
     FM241900 26012KT P6SM SCT015 BKN200
     FM242130 28019G25KT P6SM SCT025 BKN035 OVC150
     FM250300 26015KT P6SM SCT015 BKN025
     FM250800 26008KT P6SM VCSH SCT015 OVC025
     FM252000 27015G25KT P6SM BKN025=



000
FTUS46 KMTR 241700
TAFSJC
TAF
KSJC 241731Z 2418/2518 VRB03KT P6SM FEW020 BKN025
     FM241830 32010KT P6SM SCT050
     FM242100 30015G20KT P6SM SCT050 BKN180
     FM250300 29010KT P6SM SCT015 BKN020 OVC100
     FM250600 31005KT P6SM VCSH SCT015 OVC025=



000
FTUS46 KMTR 241700
TAFMRY
TAF
KMRY 241731Z 2418/2518 27006KT P6SM FEW100
     FM250300 23006KT P6SM FEW010 OVC015
     FM250800 20004KT P6SM VCSH OVC010=



000
FTUS46 KMTR 241700
TAFSTS
TAF
KSTS 241731Z 2418/2518 VRB04KT P6SM FEW025 SCT035 BKN200
     FM242300 24010KT P6SM SCT015 BKN025
     FM250400 19006KT P6SM VCSH BKN015 OVC020=



000
FTUS46 KMTR 241700
TAFSNS
TAF
KSNS 241731Z 2418/2518 27007KT P6SM FEW100
     FM242000 28012G18KT P6SM SCT200
     FM250300 26008KT P6SM FEW010 OVC015
     FM250800 30004KT P6SM VCSH OVC010=



000
FTUS46 KMTR 241700
TAFOAK
TAF
KOAK 241731Z 2418/2524 29008KT P6SM BKN012 OVC150
     FM241900 28009KT P6SM SCT015 BKN200
     FM242130 27015G25KT P6SM SCT025 BKN035 OVC150
     FM250200 27015KT P6SM SCT015 BKN025
     FM250800 26010KT P6SM VCSH SCT015 OVC025
     FM252100 27015G22KT P6SM BKN025=



000
FTUS46 KMTR 241700 AAF
TAFSFO
TAF AMD
KSFO 241701Z 2417/2518 27008KT P6SM FEW005 BKN015
     FM241900 26012KT P6SM FEW005
     FM242200 28019G25KT P6SM SCT025 BKN035 OVC150
     FM250300 26015KT P6SM -SHRA SCT015 BKN025
     FM250800 26008KT P6SM -SHRA SCT015 OVC025=



000
FTUS46 KMTR 241600 AAC
TAFOAK
TAF AMD
KOAK 241650Z 2417/2518 29008KT P6SM SCT010 BKN150
      TEMPO 2417/2418 BKN010
     FM242200 27015G25KT P6SM SCT025 BKN035 OVC150
     FM250200 27015KT P6SM -SHRA SCT015 BKN025
     FM250800 26010KT P6SM -SHRA SCT015 OVC025=



000
FTUS46 KMTR 241600 AAC
TAFMRY
TAF AMD
KMRY 241646Z 2417/2512 27006KT P6SM FEW100
     FM250300 23006KT P6SM FEW010 OVC015
     FM250700 20004KT P6SM -SHRA OVC010=



000
FTUS46 KMTR 241600 AAA
TAFSJC
TAF AMD
KSJC 241643Z 2417/2512 VRB03KT P6SM FEW015 BKN020
     FM241700 32005KT P6SM FEW025 SCT040
     FM242100 30015G20KT P6SM SCT050 BKN180
     FM250300 29010KT P6SM VCSH SCT015 BKN020 OVC100
     FM250600 31005KT P6SM -SHRA SCT015 OVC025=



000
FTUS46 KMTR 241600 AAB
TAFSNS
TAF AMD
KSNS 241642Z 2417/2512 27007KT P6SM FEW100
     FM242000 28012G18KT P6SM SCT200
     FM250300 26008KT P6SM FEW010 OVC015
     FM250700 30004KT P6SM -SHRA OVC010=



000
FTUS46 KMTR 241600 AAB
TAFMRY
TAF AMD
KMRY 241632Z 2417/2512 17004KT P6SM BKN005
     FM241700 28007KT P6SM FEW200
     FM242300 25010KT P6SM FEW015 SCT100
     FM250300 23006KT P6SM FEW010 OVC015
     FM250700 20004KT P6SM -SHRA OVC010=



000
FTUS46 KMTR 241600 AAE
TAFSFO
TAF AMD
KSFO 241627Z 2416/2518 27008KT P6SM FEW005 BKN015
     FM241800 26012KT P6SM FEW005
     FM242200 28019G25KT P6SM SCT025 BKN035 OVC150
     FM250300 26015KT P6SM -SHRA SCT015 BKN025
     FM250800 26008KT P6SM -SHRA SCT015 OVC025=



000
FTUS46 KMTR 241500 AAD
TAFSFO
TAF AMD
KSFO 241501Z 2415/2518 27008KT P6SM SCT009 BKN025
     FM241800 26012KT P6SM FEW005
     FM242200 28019G25KT P6SM SCT025 BKN035 OVC150
     FM250300 26015KT P6SM -SHRA SCT015 BKN025
     FM250800 26008KT P6SM -SHRA SCT015 OVC025=



000
FTUS46 KMTR 241500 AAB
TAFOAK
TAF AMD
KOAK 241501Z 2415/2518 29008KT P6SM FEW010
     FM242200 27015G25KT P6SM SCT025 BKN035 OVC150
     FM250200 27015KT P6SM -SHRA SCT015 BKN025
     FM250800 26010KT P6SM -SHRA SCT015 OVC025=



000
FTUS46 KMTR 241400 AAA
TAFOAK
TAF AMD
KOAK 241435Z 2415/2518 29008KT P6SM FEW008 SCT015
      TEMPO 2415/2416 BKN015
     FM241730 28009KT P6SM FEW015 SCT040
     FM242200 27015G25KT P6SM SCT025 BKN035 OVC150
     FM250200 27015KT P6SM -SHRA SCT015 BKN025
     FM250800 26010KT P6SM -SHRA SCT015 OVC025=



000
FTUS46 KMTR 241400 AAC
TAFSFO
TAF AMD
KSFO 241428Z 2414/2518 27008KT P6SM SCT009 BKN020
     FM241800 26012KT P6SM FEW005
     FM242200 28019G25KT P6SM SCT025 BKN035 OVC150
     FM250300 26015KT P6SM -SHRA SCT015 BKN025
     FM250800 26008KT P6SM -SHRA SCT015 OVC025=



000
FTUS46 KMTR 241300 AAA
TAFSNS
TAF AMD
KSNS 241341Z 2414/2512 26003KT P6SM SKC
      TEMPO 2414/2417 BKN015
     FM241700 28005KT P6SM SCT200
     FM242000 28012G18KT P6SM SCT200
     FM250300 26008KT P6SM FEW010 OVC015
     FM250700 30004KT P6SM -SHRA OVC010=



000
FTUS46 KMTR 241300 AAA
TAFMRY
TAF AMD
KMRY 241340Z 2414/2512 17004KT P6SM FEW004
      TEMPO 2414/2417 SCT004 BKN015
     FM241800 28005KT P6SM SCT200
     FM242000 29010KT P6SM SCT200
     FM242300 25010KT P6SM FEW015 SCT100
     FM250300 23006KT P6SM FEW010 OVC015
     FM250700 20004KT P6SM -SHRA OVC010=



000
FTUS46 KMTR 241200 AAB
TAFSFO
TAF AMD
KSFO 241215Z 2412/2518 26012KT P6SM BKN005 OVC009
     FM241700 26012KT P6SM FEW005
     FM241900 27012KT P6SM FEW015 SCT040 BKN150
     FM242200 28019G25KT P6SM SCT025 BKN035 OVC150
     FM250300 26015KT P6SM -SHRA SCT015 BKN025
     FM250800 26008KT P6SM -SHRA SCT015 OVC025=



000
FTUS46 KMTR 241100 AAA
TAFSFO
TAF AMD
KSFO 241138Z 2412/2518 27007KT P6SM FEW008 SCT010
      TEMPO 2412/2416 BKN005 BKN012
     FM241900 27012KT P6SM FEW015 SCT040 BKN150
     FM242200 28019G25KT P6SM SCT025 BKN035 OVC150
     FM250300 26015KT P6SM -SHRA SCT015 BKN025
     FM250800 26008KT P6SM -SHRA SCT015 OVC025=



000
FTUS46 KMTR 241100
TAFSNS
TAF
KSNS 241121Z 2412/2512 26003KT P6SM SKC
     FM241700 28005KT P6SM SCT200
     FM242000 28012G18KT P6SM SCT200
     FM250300 26008KT P6SM FEW010 OVC015
     FM250700 30004KT P6SM -SHRA OVC010=



000
FTUS46 KMTR 241100
TAFSJC
TAF
KSJC 241121Z 2412/2512 VRB03KT P6SM SKC
      TEMPO 2412/2416 BKN015
     FM241800 32005KT P6SM FEW025 SCT040
     FM242100 30015G20KT P6SM SCT050 BKN180
     FM250300 29010KT P6SM VCSH SCT015 BKN020 OVC100
     FM250600 31005KT P6SM -SHRA SCT015 OVC025=



000
FTUS46 KMTR 241100
TAFSTS
TAF
KSTS 241121Z 2412/2512 00000KT P6SM SCT120
     FM241800 22005KT P6SM FEW025 SCT035 BKN200
     FM242300 25010KT P6SM -SHRA SCT015 BKN025
     FM250400 26005KT P6SM VCSH BKN015 OVC020
     FM250600 VRB03KT P6SM -SHRA SCT020 BKN030 OVC040=



000
FTUS46 KMTR 241100
TAFOAK
TAF
KOAK 241121Z 2412/2518 VRB03KT P6SM FEW008 SCT015
      TEMPO 2414/2416 BKN015
     FM241700 25005KT P6SM FEW015
     FM242000 27010KT P6SM FEW025 SCT040 BKN150
     FM242200 27015G25KT P6SM SCT025 BKN035 OVC150
     FM250200 27015KT P6SM -SHRA SCT015 BKN025
     FM250800 26010KT P6SM -SHRA SCT015 OVC025=



000
FTUS46 KMTR 241100
TAFSFO
TAF
KSFO 241121Z 2412/2518 27007KT P6SM FEW008 SCT010
      TEMPO 2414/2416 BKN012
     FM241900 27012KT P6SM FEW015 SCT040 BKN150
     FM242200 28019G25KT P6SM SCT025 BKN035 OVC150
     FM250300 26015KT P6SM -SHRA SCT015 BKN025
     FM250800 26008KT P6SM -SHRA SCT015 OVC025=



000
FTUS46 KMTR 241100
TAFMRY
TAF
KMRY 241121Z 2412/2512 17004KT P6SM SKC
     FM241800 28005KT P6SM SCT200
     FM242000 29010KT P6SM SCT200
     FM242300 25010KT P6SM FEW015 SCT100
     FM250300 23006KT P6SM FEW010 OVC015
     FM250700 20004KT P6SM -SHRA OVC010=



000
FTUS46 KMTR 240900 AAA
TAFSTS
TAF AMD
KSTS 240909Z 2409/2506 00000KT P6SM SKC
     FM241700 VRB03KT P6SM BKN200
     FM242000 23009KT P6SM FEW020 SCT030 BKN200
     FM242300 25010KT P6SM -SHRA SCT015 BKN025
     FM250400 18007KT P6SM -SHRA BKN015 OVC020=



000
FTUS46 KMTR 240900 AAA
TAFSFO
TAF AMD
KSFO 240900Z 2409/2512 29007KT P6SM FEW010
     FM241100 27007KT P6SM BKN012 OVC025
     FM241700 30009KT P6SM SCT025 SCT150
     FM242000 28019G25KT P6SM SCT025 BKN150
     FM250200 27015KT P6SM FEW015 BKN200
     FM250400 27010KT P6SM FEW015 OVC025=



000
FTUS46 KMTR 240700 AAA
TAFSNS
TAF AMD
KSNS 240714Z 2407/2506 26003KT P6SM SKC
      TEMPO 2414/2418 29008KT P6SM BKN015
     FM241800 27011G18KT P6SM SCT200
     FM250300 26010KT P6SM OVC025=



000
FTUS46 KMTR 240500
TAFSJC
TAF
KSJC 240539Z 2406/2506 29005KT P6SM FEW024
     FM241100 VRB03KT P6SM BKN025
     FM241700 30005KT P6SM SCT025
     FM242000 30013KT P6SM BKN180=



000
FTUS46 KMTR 240500
TAFSFO
TAF
KSFO 240539Z 2406/2512 29013KT P6SM FEW013 SCT200
     FM241100 27007KT P6SM BKN012 OVC025
     FM241700 30009KT P6SM SCT025 SCT150
     FM242000 28019G25KT P6SM SCT025 BKN150
     FM250200 27015KT P6SM FEW015 BKN200
     FM250400 27010KT P6SM FEW015 OVC025=



000
FTUS46 KMTR 240500
TAFMRY
TAF
KMRY 240539Z 2406/2506 00000KT P6SM FEW200
     FM240700 VRB04KT P6SM FEW200
     FM241200 17004KT P6SM BKN200
      TEMPO 2414/2418 29008KT P6SM BKN015
     FM241800 27010KT P6SM SCT200
     FM250300 22007KT P6SM OVC015=



000
FTUS46 KMTR 240500
TAFSTS
TAF
KSTS 240539Z 2406/2506 28008KT P6SM SKC
     FM240900 VRB03KT P6SM BKN025 BKN060
     FM241700 VRB03KT P6SM BKN200
     FM242000 23009KT P6SM OVC100
     FM250400 18007KT P6SM OVC050=



000
FTUS46 KMTR 240500
TAFOAK
TAF
KOAK 240539Z 2406/2512 31005KT P6SM FEW015 SCT200
     FM241200 31005KT P6SM SCT015 OVC025
     FM241700 27009KT P6SM SCT025 SCT150
     FM242000 27013KT P6SM SCT025 BKN150
     FM242200 27015G25KT P6SM OVC150
     FM250400 27010KT P6SM OVC025=



000
FTUS46 KMTR 240500
TAFSNS
TAF
KSNS 240539Z 2406/2506 22007G14KT P6SM SKC
     FM241000 14006KT P6SM BKN200
      TEMPO 2414/2418 29008KT P6SM BKN015
     FM241800 27011G18KT P6SM SCT200
     FM250300 26010KT P6SM OVC025=



000
FTUS46 KMTR 240300 AAA
TAFSFO
TAF AMD
KSFO 240319Z 2403/2506 26020G29KT P6SM FEW012 BKN200
     FM240500 27015KT P6SM FEW012 BKN200
     FM240800 27007KT P6SM SCT012 OVC025
     FM241700 30009KT P6SM SCT025 SCT150
     FM242000 28019G25KT P6SM SCT025 BKN150
     FM250400 27015KT P6SM FEW015 BKN200=



000
FTUS46 KMTR 232300
TAFMRY
TAF
KMRY 232339Z 2400/2424 27010G15KT P6SM SKC
     FM240300 23005KT P6SM SKC
     FM240700 20004KT P6SM FEW200
     FM241200 17004KT P6SM BKN200
      TEMPO 2414/2418 29008KT P6SM BKN015
     FM241800 27010KT P6SM SCT200=



000
FTUS46 KMTR 232300
TAFSTS
TAF
KSTS 232339Z 2400/2424 23012G18KT P6SM SCT070 BKN200
     FM240200 25008KT P6SM BKN200
     FM240500 VRB03KT P6SM BKN100
     FM241100 VRB03KT P6SM BKN025 BKN060
     FM241700 VRB03KT P6SM BKN200
     FM242000 23009KT P6SM OVC100=



000
FTUS46 KMTR 232300
TAFSJC
TAF
KSJC 232339Z 2400/2424 30015KT P6SM FEW045 SCT140 SCT200
     FM240400 30009KT P6SM FEW045 BKN140 BKN180
     FM240800 VRB03KT P6SM BKN025
     FM241700 30005KT P6SM SCT025
     FM242000 30013KT P6SM BKN180=



000
FTUS46 KMTR 232300
TAFSFO
TAF
KSFO 232339Z 2400/2506 26020G29KT P6SM FEW015 SCT200
     FM240400 27015KT P6SM FEW015 BKN200
     FM240600 27007KT P6SM SCT015 OVC025
     FM241700 30009KT P6SM SCT025 SCT150
     FM242000 28019G25KT P6SM SCT025 BKN150
     FM250400 27015KT P6SM FEW015 BKN200=



000
FTUS46 KMTR 232300
TAFOAK
TAF
KOAK 232339Z 2400/2506 28015G26KT P6SM FEW015 SCT200
     FM240400 28010KT P6SM FEW015 BKN200
     FM240900 27005KT P6SM SCT015 OVC025
     FM241700 27009KT P6SM SCT025 SCT150
     FM242000 27013KT P6SM SCT025 BKN150
     FM242200 27015G25KT P6SM OVC150=



000
FTUS46 KMTR 232300
TAFSNS
TAF
KSNS 232339Z 2400/2424 26011KT P6SM SKC
     FM240300 25010KT P6SM SKC
     FM240500 26005KT P6SM FEW200
     FM241000 14006KT P6SM BKN200
      TEMPO 2414/2418 29008KT P6SM BKN015
     FM241800 27011KT P6SM SCT200=



000
FTUS46 KMTR 232000 AAA
TAFSFO
TAF AMD
KSFO 232057Z 2321/2424 29017G25KT P6SM BKN200
     FM240300 27015KT P6SM BKN200
     FM240600 27007KT P6SM SCT015 OVC025
     FM241700 30009KT P6SM SCT025 SCT150
     FM242000 28015KT P6SM SCT025 BKN150=



000
FTUS46 KMTR 231700
TAFSJC
TAF
KSJC 231737Z 2318/2418 29008KT P6SM SCT150
     FM232100 30015G20KT P6SM SCT150
     FM240300 30009KT P6SM BKN150
     FM240800 VRB03KT P6SM BKN025
     FM241700 30005KT P6SM SCT025=



000
FTUS46 KMTR 231700
TAFSNS
TAF
KSNS 231737Z 2318/2418 25010KT P6SM BKN200
     FM232200 26015G20KT P6SM BKN200
     FM240300 25010KT P6SM SKC
     FM240500 26005KT P6SM SKC
     FM241000 14006KT P6SM BKN020=



000
FTUS46 KMTR 231700
TAFSFO
TAF
KSFO 231737Z 2318/2424 32004KT P6SM BKN200
     FM232000 27020G28KT P6SM BKN200
     FM240300 27015KT P6SM BKN200
     FM240900 27007KT P6SM SCT015 OVC025
     FM241700 30009KT P6SM SCT025 SCT150
     FM242000 28015KT P6SM SCT025 BKN150=



000
FTUS46 KMTR 231700
TAFSTS
TAF
KSTS 231737Z 2318/2418 33004KT P6SM SKC
     FM232000 22008KT P6SM SKC
     FM240400 VRB03KT P6SM BKN100
     FM241100 VRB03KT P6SM BKN025 BKN060=



000
FTUS46 KMTR 231700
TAFOAK
TAF
KOAK 231737Z 2318/2424 27010KT P6SM BKN200
     FM232000 27017G23KT P6SM BKN200
     FM240400 28010KT P6SM BKN200
     FM240900 27005KT P6SM SCT015 OVC025
     FM241700 27009KT P6SM SCT025 SCT150
     FM242000 27013KT P6SM SCT025 BKN150=



000
FTUS46 KMTR 231700
TAFMRY
TAF
KMRY 231737Z 2318/2418 28004KT P6SM BKN200
     FM232000 27012G20KT P6SM BKN200
     FM240300 24005KT P6SM SKC
     FM240700 20004KT P6SM SKC
     FM241000 17004KT P6SM BKN020=



000
FTUS46 KMTR 231500 AAA
TAFSFO
TAF AMD
KSFO 231503Z 2315/2418 29011KT P6SM SCT200
     FM232000 27020G28KT P6SM SCT200
     FM240300 27015KT P6SM BKN200
     FM240700 27010KT P6SM BKN200
     FM241000 27007KT P6SM SCT015 OVC025=



000
FTUS46 KMTR 231100
TAFMRY
TAF
KMRY 231120Z 2312/2412 18004KT P6SM SKC
     FM231600 28004KT P6SM SKC
     FM232000 27012G20KT P6SM SKC
     FM240300 24005KT P6SM SKC
     FM240700 20004KT P6SM SKC=



000
FTUS46 KMTR 231100
TAFOAK
TAF
KOAK 231120Z 2312/2418 30005KT P6SM SCT200
     FM231800 27010KT P6SM SCT200
     FM232000 27017KT P6SM SCT200
     FM240400 28010KT P6SM BKN200
     FM240700 26005KT P6SM BKN200
     FM241000 27005KT P6SM SCT015 OVC025=



000
FTUS46 KMTR 231100
TAFSTS
TAF
KSTS 231120Z 2312/2412 33004KT P6SM SKC
     FM232000 22008KT P6SM SKC
     FM240400 VRB03KT P6SM SCT250=



000
FTUS46 KMTR 231100
TAFSFO
TAF
KSFO 231120Z 2312/2418 27015KT P6SM SCT200
     FM232000 27020G28KT P6SM SCT200
     FM240300 27015KT P6SM BKN200
     FM240700 27010KT P6SM BKN200
     FM241000 27007KT P6SM SCT015 OVC025=



000
FTUS46 KMTR 231100
TAFSNS
TAF
KSNS 231120Z 2312/2412 24004KT P6SM SKC
     FM231600 25010KT P6SM SKC
     FM232200 26015G20KT P6SM SKC
     FM240300 25010KT P6SM SKC
     FM240500 26005KT P6SM SKC=



000
FTUS46 KMTR 231100
TAFSJC
TAF
KSJC 231120Z 2312/2412 29004KT P6SM FEW200
     FM231800 31008KT P6SM SCT200
     FM232100 30015G20KT P6SM SCT200
     FM240300 30009KT P6SM SCT200
     FM240800 VRB03KT P6SM BKN025=



000
FTUS46 KMTR 230900 AAA
TAFMRY
TAF AMD
KMRY 230922Z 2309/2406 24004KT P6SM SKC
     FM231800 29010KT P6SM SKC
     FM232000 27013G19KT P6SM SKC
     FM240300 23006KT P6SM SKC=



000
FTUS46 KMTR 230900 AAB
TAFSFO
TAF AMD
KSFO 230901Z 2309/2412 28015G20KT P6SM SCT200
     FM231100 27010KT P6SM FEW030 SCT200
     FM232000 27017G23KT P6SM SCT200
     FM240400 27010KT P6SM BKN200=



000
FTUS46 KMTR 230700 AAA
TAFSFO
TAF AMD
KSFO 230702Z 2307/2412 28015G20KT P6SM SCT200
     FM231100 27010KT P6SM FEW030 SCT200
     FM232000 27017G23KT P6SM SCT200
     FM240400 27010KT P6SM BKN200=



000
FTUS46 KMTR 230500
TAFMRY
TAF
KMRY 230526Z 2306/2406 25009KT P6SM SKC
     FM231100 24004KT P6SM SKC
     FM231800 29010KT P6SM SKC
     FM232000 27013G19KT P6SM SKC
     FM240300 23006KT P6SM SKC=



000
FTUS46 KMTR 230500
TAFSNS
TAF
KSNS 230526Z 2306/2406 24010KT P6SM SKC
     FM231100 25005KT P6SM SKC
     FM231600 26009KT P6SM SKC
     FM232000 26013KT P6SM SKC
     FM232300 26015G21KT P6SM SKC
     FM240400 25006KT P6SM SKC=



000
FTUS46 KMTR 230500
TAFSTS
TAF
KSTS 230526Z 2306/2406 31004KT P6SM SKC
     FM230900 VRB03KT P6SM SKC
     FM232000 26009KT P6SM SKC
     FM240400 VRB04KT P6SM SCT250=



000
FTUS46 KMTR 230500
TAFOAK
TAF
KOAK 230526Z 2306/2412 29010KT P6SM SCT200
     FM230900 28006KT P6SM SCT200
     FM232000 27017KT P6SM SCT200
     FM240400 28010KT P6SM BKN200=



000
FTUS46 KMTR 230500
TAFSFO
TAF
KSFO 230526Z 2306/2412 28020G30KT P6SM FEW030 SCT200
     FM231100 27013KT P6SM FEW030 SCT200
     FM232000 27017G23KT P6SM SCT200
     FM240400 27010KT P6SM BKN200=



000
FTUS46 KMTR 230500
TAFSJC
TAF
KSJC 230526Z 2306/2406 28013G18KT P6SM FEW040 FEW200
     FM230700 29007KT P6SM FEW040 FEW200
     FM230900 VRB04KT P6SM FEW200
     FM231800 31014G19KT P6SM SCT200
     FM240300 30009KT P6SM SCT200=



000
FTUS46 KMTR 230300 AAA
TAFSFO
TAF AMD
KSFO 230302Z 2303/2406 28026G35KT P6SM FEW035 BKN200
     FM230400 28020KT P6SM FEW035 BKN200
     FM230800 27013KT P6SM FEW035 BKN200
     FM232000 27017G23KT P6SM SCT200
     FM240400 27010KT P6SM BKN200=



000
FTUS46 KMTR 222300
TAFOAK
TAF
KOAK 222334Z 2300/2406 28025G32KT P6SM FEW018 SCT200
     FM230400 27016KT P6SM FEW250
     FM230700 28006KT P6SM FEW250
     FM232000 27017KT P6SM SCT250
     FM240400 28010KT P6SM BKN250=



000
FTUS46 KMTR 222300
TAFSFO
TAF
KSFO 222334Z 2300/2406 28026G35KT P6SM FEW040
     FM230400 28020KT P6SM FEW250
     FM230800 27013KT P6SM FEW250
     FM232000 27017G23KT P6SM SCT250
     FM240400 27010KT P6SM BKN250=



000
FTUS46 KMTR 222300
TAFSTS
TAF
KSTS 222334Z 2300/2324 26015G22KT P6SM BKN070
     FM230300 30007KT P6SM SKC
     FM230900 VRB03KT P6SM SKC
     FM232000 26009KT P6SM SKC=



000
FTUS46 KMTR 222300
TAFSNS
TAF
KSNS 222334Z 2300/2324 25016KT P6SM SKC
     FM230500 24010KT P6SM SKC
     FM231100 26005KT P6SM SKC
     FM231600 25009KT P6SM SKC
     FM232000 26013KT P6SM SKC
     FM232300 26015G21KT P6SM SKC=



000
FTUS46 KMTR 222300
TAFMRY
TAF
KMRY 222334Z 2300/2324 27014G20KT P6SM SKC
     FM230300 24010KT P6SM SKC
     FM231100 24004KT P6SM SKC
     FM231800 29010KT P6SM SKC
     FM232000 27013G19KT P6SM SKC=



000
FTUS46 KMTR 222300
TAFSJC
TAF
KSJC 222334Z 2300/2324 30021G25KT P6SM FEW050
     FM230400 31009KT P6SM FEW250
     FM230900 VRB04KT P6SM FEW250
     FM231800 31014G19KT P6SM SCT250=



000
FTUS46 KMTR 222300 AAB
TAFSFO
TAF AMD
KSFO 222313Z 2223/2324 28026G35KT P6SM FEW040
     FM230400 28020KT P6SM FEW250
     FM230800 27013KT P6SM FEW250
     FM232000 27017G23KT P6SM SCT250=



000
FTUS46 KMTR 222100 AAA
TAFSFO
TAF AMD
KSFO 222102Z 2221/2324 28025G32KT P6SM FEW045
     FM230400 28020KT P6SM FEW250
     FM230800 27013KT P6SM FEW250
     FM232000 27017G23KT P6SM SCT250=



000
FTUS46 KMTR 221700
TAFOAK
TAF
KOAK 221720Z 2218/2324 29015KT P6SM FEW020
     FM222000 26025G32KT P6SM FEW025
     FM230400 27016KT P6SM FEW250
     FM230700 28006KT P6SM FEW250
     FM232000 27015G20KT P6SM SCT250=



000
FTUS46 KMTR 221700
TAFSFO
TAF
KSFO 221720Z 2218/2324 28017G25KT P6SM FEW030
     FM222000 28025G34KT P6SM FEW035
     FM230400 28020KT P6SM FEW250
     FM230800 27013KT P6SM FEW250
     FM232000 27017G23KT P6SM SCT250=



000
FTUS46 KMTR 221700
TAFSJC
TAF
KSJC 221720Z 2218/2318 29015KT P6SM FEW035
     FM222100 29018G29KT P6SM FEW035
     FM230500 31009KT P6SM FEW250
     FM231100 28004KT P6SM FEW250=



000
FTUS46 KMTR 221700
TAFMRY
TAF
KMRY 221720Z 2218/2318 28011G17KT P6SM FEW030
     FM222100 28015G25KT P6SM FEW030
     FM230300 24010KT P6SM SKC
     FM231100 25004KT P6SM SKC=



000
FTUS46 KMTR 221700
TAFSTS
TAF
KSTS 221720Z 2218/2318 32013KT P6SM FEW040
     FM222100 29017G27KT P6SM FEW250
     FM230500 30007KT P6SM SKC
     FM231000 VRB03KT P6SM SKC=



000
FTUS46 KMTR 221700
TAFSNS
TAF
KSNS 221720Z 2218/2318 26009KT P6SM FEW035
     FM222100 25018G29KT P6SM FEW035
     FM230500 24010KT P6SM SKC
     FM231100 26005KT P6SM SKC=



000
FTUS46 KMTR 221500 AAA
TAFSNS
TAF AMD
KSNS 221543Z 2216/2312 26009KT P6SM SCT035
     FM222100 25018G29KT P6SM FEW250
     FM230500 24010KT P6SM SKC=



000
FTUS46 KMTR 221500 AAB
TAFMRY
TAF AMD
KMRY 221543Z 2216/2312 28011G17KT P6SM FEW019 SCT025
     FM222100 28018G27KT P6SM FEW250
     FM230300 24010KT P6SM SKC=



000
FTUS46 KMTR 221500 AAA
TAFSJC
TAF AMD
KSJC 221543Z 2216/2312 31012G18KT P6SM FEW013 SCT025 SCT035
     FM221700 32015KT P6SM FEW050 SCT250
     FM222100 29018G29KT P6SM SCT250
     FM230500 31009KT P6SM FEW250=



000
FTUS46 KMTR 221500 AAA
TAFOAK
TAF AMD
KOAK 221543Z 2216/2318 30012KT P6SM FEW030
     FM221800 29018KT P6SM FEW035
     FM222000 26025G32KT P6SM SCT250
     FM230400 27016KT P6SM FEW250=



000
FTUS46 KMTR 221500 AAA
TAFSTS
TAF AMD
KSTS 221543Z 2216/2312 32013KT P6SM FEW040
     FM222100 29017G27KT P6SM FEW250
     FM230400 27012KT P6SM SKC=



000
FTUS46 KMTR 221400 AAB
TAFSFO
TAF AMD
KSFO 221428Z 2214/2318 28017G25KT P6SM FEW024 SCT030
     FM222000 28025G34KT P6SM SCT035
     FM230400 28020KT P6SM SCT250
     FM230900 27013KT P6SM SKC=



000
FTUS46 KMTR 221200 AAA
TAFMRY
TAF AMD
KMRY 221224Z 2212/2312 23017KT P6SM VCSH FEW012 OVC030
     FM221600 27015KT P6SM SCT015 BKN030
     FM222100 28018G27KT P6SM FEW250
     FM230300 24010KT P6SM SKC=



000
FTUS46 KMTR 221200 AAA
TAFSFO
TAF AMD
KSFO 221223Z 2212/2318 27017G24KT P6SM VCSH FEW020 SCT040
     FM221400 27018KT P6SM FEW035
     FM221600 29020G25KT P6SM SCT250
     FM222000 28025G34KT P6SM SCT035
     FM230400 28020KT P6SM SCT250
     FM230900 27013KT P6SM SKC=



000
FTUS46 KMTR 221100
TAFSNS
TAF
KSNS 221127Z 2212/2312 26012KT P6SM VCSH BKN012 BKN120
     FM221600 26015KT P6SM SCT015 BKN030
     FM222100 25018G29KT P6SM FEW250
     FM230500 24010KT P6SM SKC=



000
FTUS46 KMTR 221100
TAFMRY
TAF
KMRY 221127Z 2212/2312 23017KT P6SM VCSH BKN012 OVC030
     FM221600 27015KT P6SM SCT015 BKN030
     FM222100 28018G27KT P6SM FEW250
     FM230300 24010KT P6SM SKC=



000
FTUS46 KMTR 221100
TAFSJC
TAF
KSJC 221127Z 2212/2312 28016G22KT P6SM VCSH BKN040 OVC100
     FM221400 32007KT P6SM SCT035 BKN050
     FM221700 32015KT P6SM FEW050 SCT250
     FM222100 29018G29KT P6SM SCT250
     FM230500 31009KT P6SM FEW250=



000
FTUS46 KMTR 221100
TAFSFO
TAF
KSFO 221127Z 2212/2318 27017G24KT P6SM VCSH FEW010 BKN020 OVC040
     FM221400 27018KT P6SM BKN035
     FM221600 29020G25KT P6SM SCT250
     FM222000 28025G34KT P6SM SCT035
     FM230400 28020KT P6SM SCT250
     FM230900 27013KT P6SM SKC=



000
FTUS46 KMTR 221100
TAFSTS
TAF
KSTS 221127Z 2212/2312 30008KT P6SM BKN035
     FM221600 31012KT P6SM SCT040
     FM222100 29017G27KT P6SM FEW250
     FM230400 27012KT P6SM SKC=



000
FTUS46 KMTR 221100
TAFOAK
TAF
KOAK 221127Z 2212/2318 27018KT P6SM VCSH BKN030 OVC080
     FM221400 27013KT P6SM BKN035
     FM221800 27018KT P6SM SCT035
     FM222000 26025G32KT P6SM SCT250
     FM230400 27016KT P6SM FEW250=



000
FTUS46 KMTR 220900 AAB
TAFSFO
TAF AMD
KSFO 220900Z 2209/2312 27017G24KT P6SM VCSH FEW010 BKN020 OVC040
     FM221400 27018KT P6SM BKN035
     FM221600 29020G25KT P6SM SCT250
     FM222000 28025G33KT P6SM SCT035
     FM230400 28020KT P6SM SCT250
     FM230900 27013KT P6SM SKC=



000
FTUS46 KMTR 220800 AAA
TAFSFO
TAF AMD
KSFO 220812Z 2208/2312 27017G24KT 6SM SHRA FEW010 BKN016 OVC030
     FM220900 27017G24KT P6SM VCSH FEW010 BKN020 OVC040
     FM221400 27018KT P6SM BKN035
     FM221600 29020G25KT P6SM SCT250
     FM222000 28025G33KT P6SM SCT035
     FM230400 28020KT P6SM SCT250
     FM230900 27013KT P6SM SKC=



000
FTUS46 KMTR 220500
TAFSJC
TAF
KSJC 220526Z 2206/2306 33003KT P6SM BKN130
     FM220900 28008KT P6SM VCSH BKN040 OVC100
     FM221400 32007KT P6SM SCT035 BKN050
     FM221700 32015KT P6SM FEW050 SCT250
     FM222100 29018G24KT P6SM SCT250
     FM230500 31009KT P6SM FEW250=



000
FTUS46 KMTR 220500
TAFSNS
TAF
KSNS 220526Z 2206/2306 27008KT P6SM BKN120
     FM221100 26007KT P6SM VCSH BKN012 BKN120
     FM221600 26015KT P6SM SCT015 BKN030
     FM222100 25018G24KT P6SM FEW250
     FM230500 24010KT P6SM SKC=



000
FTUS46 KMTR 220500
TAFOAK
TAF
KOAK 220526Z 2206/2312 26013KT P6SM FEW016 BKN100
     FM220800 26013KT P6SM VCSH BKN030 OVC080
     FM221400 27013KT P6SM BKN035
     FM221800 27018KT P6SM SCT035
     FM222000 26025G30KT P6SM SCT250
     FM230400 27016KT P6SM SCT250
     FM230600 28008KT P6SM SKC=



000
FTUS46 KMTR 220500
TAFMRY
TAF
KMRY 220526Z 2206/2306 24007KT P6SM BKN120
     FM221000 23007KT P6SM VCSH BKN012 OVC030
     FM221600 27015KT P6SM SCT015 BKN030
     FM222100 28018G24KT P6SM FEW250
     FM230300 24010KT P6SM SKC=



000
FTUS46 KMTR 220500
TAFSTS
TAF
KSTS 220526Z 2206/2306 22006KT P6SM -SHRA BKN023 BKN028 OVC050
     FM221200 30008KT P6SM BKN035
     FM221600 31012KT P6SM SCT040
     FM222200 29015G20KT P6SM FEW250
     FM230400 27005KT P6SM SKC=



000
FTUS46 KMTR 220500
TAFSFO
TAF
KSFO 220526Z 2206/2312 27011KT P6SM SCT015 BKN027 BKN150
     FM220800 27015KT P6SM VCSH FEW010 BKN030 OVC080
     FM221400 27018KT P6SM BKN035
     FM221600 29020G25KT P6SM SCT250
     FM222000 28025G33KT P6SM SCT035
     FM230400 28020KT P6SM SCT250
     FM230900 27013KT P6SM SKC=



000
FTUS46 KMTR 220500 AAA
TAFSTS
TAF AMD
KSTS 220515Z 2205/2224 22006KT P6SM -SHRA BKN023 BKN028 OVC050
     FM221200 30008KT P6SM BKN035
     FM221600 31012KT P6SM SCT040
     FM222200 29015G21KT P6SM FEW250=



000
FTUS46 KMTR 220300 AAA
TAFSFO
TAF AMD
KSFO 220302Z 2203/2306 27015KT P6SM VCSH FEW010 SCT150 BKN180
     FM220800 27015KT P6SM VCSH FEW010 BKN030 OVC080
     FM221400 27018KT P6SM BKN035
     FM221600 29020G25KT P6SM SCT250
     FM222000 28025G33KT P6SM SCT035
     FM230400 28020KT P6SM SCT250=



    US Dept of Commerce
    National Oceanic and Atmospheric Administration
    National Weather Service
    1325 East West Highway
    Silver Spring, MD 20910
    Page Author: NWS Internet Services Team
Disclaimer
Information Quality
Credits
Glossary
Privacy Policy
Freedom of Information Act (FOIA)
About Us
Career Opportunities